Time;durP1;ratioP1;P1;durP2;ratioP2;P2;SDS_P1;SDS_P2;PMS_P1;PMS_P2;Temp;Humidity;BMP_temperature;BMP_pressure;BME280_temperature;BME280_humidity;BME280_pressure;Samples;Min_cycle;Max_cycle;Signal;HPM_P1;HPM_P2
2023/01/05 00:01:51;;;;;;;9.97;6.97;;;9.50;99.90;;;;;;5067508;28;20572;-76
2023/01/05 00:04:17;;;;;;;10.10;6.63;;;9.50;99.90;;;;;;5050454;28;20194;-76
2023/01/05 00:06:44;;;;;;;8.23;6.43;;;9.50;99.90;;;;;;5068172;28;20192;-76
2023/01/05 00:09:14;;;;;;;10.50;6.83;;;9.50;99.90;;;;;;5066857;28;20190;-76
2023/01/05 00:22:59;;;;;;;10.33;6.90;;;9.80;99.90;;;;;;5058638;28;20309;-76
2023/01/05 00:25:30;;;;;;;11.20;7.33;;;9.80;99.90;;;;;;5066299;28;20193;-76
2023/01/05 00:27:57;;;;;;;11.73;7.23;;;9.80;99.90;;;;;;5046043;28;20260;-76
2023/01/05 00:30:29;;;;;;;15.13;8.13;;;9.80;99.90;;;;;;5061891;28;20183;-76
2023/01/05 00:32:55;;;;;;;9.03;7.17;;;9.70;99.90;;;;;;5062218;28;20708;-76
2023/01/05 00:35:22;;;;;;;12.77;6.87;;;9.70;99.90;;;;;;5059868;28;20191;-76
2023/01/05 00:37:50;;;;;;;11.93;7.20;;;9.70;99.90;;;;;;5067840;28;20239;-76
2023/01/05 00:40:19;;;;;;;9.93;6.63;;;9.70;99.90;;;;;;5066357;28;20921;-76
2023/01/05 00:42:47;;;;;;;10.37;6.87;;;9.60;99.90;;;;;;5066429;28;20222;-76
2023/01/05 00:45:17;;;;;;;9.33;6.90;;;9.60;99.90;;;;;;5066639;28;20696;-76
2023/01/05 00:47:44;;;;;;;12.63;6.60;;;9.60;99.90;;;;;;5066277;28;20183;-76
2023/01/05 00:50:15;;;;;;;8.10;6.80;;;9.60;99.90;;;;;;5066790;28;20666;-76
2023/01/05 00:52:43;;;;;;;10.00;6.70;;;9.50;99.90;;;;;;5042896;28;20190;-75
2023/01/05 00:55:10;;;;;;;10.33;7.00;;;9.50;99.90;;;;;;5065338;28;20229;-76
2023/01/05 00:57:37;;;;;;;9.50;6.30;;;9.50;99.90;;;;;;5049573;28;20178;-76
2023/01/05 01:00:09;;;;;;;9.33;6.13;;;9.50;99.90;;;;;;5049529;28;20261;-76
2023/01/05 01:02:35;;;;;;;8.83;6.43;;;9.50;99.90;;;;;;5065607;28;20225;-76
2023/01/05 01:05:02;;;;;;;9.83;6.63;;;9.50;99.90;;;;;;5050143;28;20635;-76
2023/01/05 01:07:28;;;;;;;10.43;6.30;;;9.50;99.90;;;;;;5065319;28;20193;-76
2023/01/05 01:09:54;;;;;;;12.00;6.33;;;9.50;99.90;;;;;;5066527;28;20285;-76
2023/01/05 01:12:21;;;;;;;10.37;6.57;;;9.40;99.90;;;;;;5066200;28;20208;-76
2023/01/05 01:14:48;;;;;;;11.70;7.07;;;9.50;99.90;;;;;;5065453;28;20202;-76
2023/01/05 01:17:16;;;;;;;7.30;6.20;;;9.50;99.90;;;;;;5066453;28;20183;-76
2023/01/05 01:19:45;;;;;;;12.67;6.37;;;9.40;99.90;;;;;;5067792;28;20275;-76
2023/01/05 01:22:12;;;;;;;9.37;6.63;;;9.40;99.90;;;;;;5059810;28;20297;-76
2023/01/05 01:24:39;;;;;;;11.47;7.07;;;9.50;99.90;;;;;;5064222;28;20198;-76
2023/01/05 01:27:06;;;;;;;11.80;6.67;;;9.50;99.90;;;;;;5069389;28;20281;-76
2023/01/05 01:29:32;;;;;;;9.37;6.50;;;9.50;99.90;;;;;;5064467;28;20221;-76
2023/01/05 01:31:59;;;;;;;9.60;6.10;;;9.60;99.90;;;;;;5047739;28;20199;-75
2023/01/05 01:34:26;;;;;;;8.83;6.43;;;9.60;99.90;;;;;;5065552;28;20193;-76
2023/01/05 01:36:55;;;;;;;9.70;5.93;;;9.70;99.90;;;;;;5062611;28;20205;-76
2023/01/05 01:39:21;;;;;;;8.90;5.97;;;9.70;99.90;;;;;;5069644;28;20182;-76
2023/01/05 01:41:48;;;;;;;10.07;6.27;;;9.80;99.90;;;;;;5048535;28;20211;-76
2023/01/05 01:44:51;;;;;;;10.30;5.97;;;9.80;99.90;;;;;;5069353;28;20191;-76
2023/01/05 01:47:25;;;;;;;8.80;5.63;;;9.90;99.90;;;;;;5041680;28;20593;-76
2023/01/05 01:49:54;;;;;;;7.93;5.63;;;9.90;99.90;;;;;;5075412;28;20250;-76
2023/01/05 01:52:24;;;;;;;9.13;5.33;;;9.90;99.90;;;;;;5065667;28;20186;-76
2023/01/05 01:54:52;;;;;;;9.03;6.23;;;10.00;99.90;;;;;;5071305;28;20184;-76
2023/01/05 01:57:20;;;;;;;8.50;5.70;;;10.00;99.90;;;;;;5056843;28;20604;-77
2023/01/05 01:59:47;;;;;;;9.30;5.47;;;10.00;99.90;;;;;;5069220;28;20186;-76
2023/01/05 02:02:14;;;;;;;7.20;5.57;;;10.00;99.90;;;;;;5067984;28;20245;-76
2023/01/05 02:04:42;;;;;;;7.10;5.67;;;10.00;99.90;;;;;;5066760;28;20190;-76
2023/01/05 02:07:13;;;;;;;9.57;5.50;;;10.00;99.90;;;;;;5066057;28;20191;-75
2023/01/05 02:09:40;;;;;;;7.97;5.50;;;10.10;99.90;;;;;;5060945;28;20183;-76
2023/01/05 02:12:30;;;;;;;7.40;4.87;;;10.10;99.90;;;;;;5068489;28;20195;-76
2023/01/05 02:15:19;;;;;;;6.60;5.00;;;10.10;99.90;;;;;;5049410;28;20191;-76
2023/01/05 02:18:10;;;;;;;8.63;5.50;;;10.10;99.90;;;;;;5052889;28;20187;-77
2023/01/05 02:20:48;;;;;;;8.17;5.80;;;10.20;99.90;;;;;;5053617;28;20950;-77
2023/01/05 02:23:39;;;;;;;9.00;5.60;;;10.20;99.90;;;;;;5057031;28;20222;-76
2023/01/05 02:26:46;;;;;;;7.57;5.20;;;10.20;99.90;;;;;;5050442;28;20262;-77
2023/01/05 02:29:47;;;;;;;7.67;5.37;;;10.20;99.90;;;;;;5046450;28;20254;-74
2023/01/05 02:32:24;;;;;;;7.33;5.27;;;10.20;99.90;;;;;;5068419;28;20191;-74
2023/01/05 02:35:18;;;;;;;9.57;5.40;;;10.20;99.90;;;;;;5068670;28;20905;-74
2023/01/05 02:38:00;;;;;;;8.37;5.63;;;10.20;99.90;;;;;;5068990;28;20195;-74
2023/01/05 02:40:41;;;;;;;10.43;5.43;;;10.20;99.90;;;;;;5053196;28;20195;-74
2023/01/05 02:43:13;;;;;;;10.87;6.13;;;10.20;99.90;;;;;;5077343;28;20304;-75
2023/01/05 02:45:39;;;;;;;6.53;5.40;;;10.20;99.90;;;;;;5066904;28;20194;-74
2023/01/05 02:48:05;;;;;;;10.03;5.73;;;10.20;99.90;;;;;;5067855;28;20912;-74
2023/01/05 02:50:48;;;;;;;6.87;5.30;;;10.20;99.90;;;;;;5067599;28;20228;-74
2023/01/05 02:53:55;;;;;;;6.97;5.27;;;10.20;99.90;;;;;;5078853;28;20195;-74
2023/01/05 02:56:56;;;;;;;8.27;5.63;;;10.20;99.90;;;;;;5061679;28;20187;-75
2023/01/05 02:59:36;;;;;;;8.07;5.30;;;10.30;99.90;;;;;;5064917;28;20347;-75
2023/01/05 03:02:13;;;;;;;7.93;5.17;;;10.30;99.90;;;;;;5068091;28;20210;-75
2023/01/05 03:04:51;;;;;;;7.67;5.80;;;10.30;99.90;;;;;;5068978;28;20726;-74
2023/01/05 03:07:27;;;;;;;10.00;5.30;;;10.30;99.90;;;;;;5048279;28;20188;-74
2023/01/05 03:09:53;;;;;;;7.53;5.20;;;10.30;99.90;;;;;;5054420;28;20264;-74
2023/01/05 03:15:33;;;;;;;9.70;5.30;;;10.30;99.90;;;;;;5069583;28;20174;-74
2023/01/05 03:18:21;;;;;;;7.20;5.27;;;10.30;99.90;;;;;;5051697;28;20195;-74
2023/01/05 03:20:53;;;;;;;9.50;4.97;;;10.40;99.90;;;;;;5048423;28;20191;-74
2023/01/05 03:38:28;;;;;;;8.20;4.90;;;10.40;99.90;;;;;;5067737;28;20232;-74
2023/01/05 03:41:01;;;;;;;7.10;4.70;;;10.40;99.90;;;;;;5066719;28;20583;-74
2023/01/05 03:43:28;;;;;;;10.40;5.27;;;10.40;99.90;;;;;;5049482;28;20207;-74
2023/01/05 03:45:57;;;;;;;7.67;4.80;;;10.40;99.90;;;;;;5067276;28;20182;-74
2023/01/05 03:48:27;;;;;;;6.63;4.50;;;10.50;99.90;;;;;;5045960;28;20231;-74
2023/01/05 03:50:54;;;;;;;8.33;4.60;;;10.50;99.90;;;;;;5068287;28;20567;-74
2023/01/05 03:53:23;;;;;;;11.27;4.80;;;10.50;99.90;;;;;;5059162;28;20708;-74
2023/01/05 03:55:49;;;;;;;7.03;4.60;;;10.60;99.90;;;;;;5065129;28;20191;-74
2023/01/05 03:58:16;;;;;;;8.47;5.37;;;10.60;99.90;;;;;;5066323;28;20214;-74
2023/01/05 04:00:42;;;;;;;9.77;5.17;;;10.60;99.90;;;;;;5064873;28;20662;-74
2023/01/05 04:03:09;;;;;;;7.50;4.57;;;10.60;99.90;;;;;;5067575;28;20234;-74
2023/01/05 04:05:36;;;;;;;9.70;4.40;;;10.70;99.90;;;;;;5048003;28;20190;-75
2023/01/05 04:08:02;;;;;;;7.00;4.80;;;10.70;99.90;;;;;;5050147;28;20631;-74
2023/01/05 04:10:29;;;;;;;8.77;4.73;;;10.70;99.90;;;;;;5051224;28;20183;-74
2023/01/05 04:12:56;;;;;;;10.57;5.63;;;10.70;99.90;;;;;;5066459;28;20190;-75
2023/01/05 04:15:22;;;;;;;9.20;5.07;;;10.70;99.90;;;;;;5067127;28;20289;-74
2023/01/05 04:17:49;;;;;;;9.37;5.63;;;10.70;99.90;;;;;;5068861;28;20325;-75
2023/01/05 04:20:15;;;;;;;7.37;5.10;;;10.70;99.90;;;;;;5067987;28;20183;-75
2023/01/05 04:22:42;;;;;;;9.27;4.83;;;10.70;99.90;;;;;;5067350;28;20276;-75
2023/01/05 04:25:08;;;;;;;7.27;5.10;;;10.80;99.90;;;;;;5067163;28;20719;-75
2023/01/05 04:27:35;;;;;;;11.73;5.50;;;10.80;99.90;;;;;;5066303;28;20776;-75
2023/01/05 04:30:01;;;;;;;8.33;5.20;;;10.80;99.90;;;;;;5067333;28;20195;-75
2023/01/05 04:32:27;;;;;;;9.40;4.70;;;10.90;99.90;;;;;;5062233;28;20288;-74
2023/01/05 04:34:54;;;;;;;9.70;5.43;;;10.90;99.90;;;;;;5066143;28;20194;-75
2023/01/05 04:37:21;;;;;;;6.83;4.83;;;10.90;99.90;;;;;;5050399;28;20184;-75
2023/01/05 04:39:47;;;;;;;8.57;5.43;;;10.90;99.90;;;;;;5037481;28;20545;-74
2023/01/05 04:42:13;;;;;;;7.93;4.80;;;10.90;99.90;;;;;;5047272;28;20277;-74
2023/01/05 04:44:39;;;;;;;9.77;5.20;;;10.90;99.90;;;;;;5065285;28;20194;-74
2023/01/05 04:47:05;;;;;;;9.23;5.33;;;11.00;99.90;;;;;;5066350;28;20195;-75
2023/01/05 04:49:32;;;;;;;12.37;5.30;;;10.90;99.90;;;;;;5048705;28;20252;-75
2023/01/05 04:51:58;;;;;;;8.53;5.17;;;11.00;99.90;;;;;;5066146;28;20384;-75
2023/01/05 04:54:25;;;;;;;10.37;5.23;;;11.00;99.90;;;;;;5044213;28;20610;-74
2023/01/05 04:56:51;;;;;;;10.20;5.63;;;10.90;99.90;;;;;;5066250;28;20198;-75
2023/01/05 04:59:18;;;;;;;13.40;5.70;;;10.90;99.90;;;;;;5066655;28;20201;-75
2023/01/05 05:01:44;;;;;;;9.37;5.27;;;10.90;99.90;;;;;;5042636;28;20591;-75
2023/01/05 05:04:11;;;;;;;9.63;5.57;;;11.00;99.90;;;;;;5057903;28;20193;-74
2023/01/05 05:06:37;;;;;;;6.70;5.00;;;11.00;99.90;;;;;;5059916;28;20210;-74
2023/01/05 05:09:03;;;;;;;6.90;5.13;;;11.00;99.90;;;;;;5078560;28;20179;-74
2023/01/05 05:11:29;;;;;;;6.67;5.13;;;11.00;99.90;;;;;;5050292;28;20213;-75
2023/01/05 05:13:56;;;;;;;8.90;5.43;;;11.00;99.90;;;;;;5049312;28;20198;-74
2023/01/05 05:16:23;;;;;;;8.10;4.93;;;11.00;99.90;;;;;;5066059;28;20734;-74
2023/01/05 05:18:49;;;;;;;6.47;4.80;;;11.00;99.90;;;;;;5067901;28;20697;-75
2023/01/05 05:21:15;;;;;;;9.53;5.03;;;11.00;99.90;;;;;;5067255;28;20207;-74
2023/01/05 05:23:42;;;;;;;8.63;5.23;;;11.00;99.90;;;;;;5066402;28;20210;-75
2023/01/05 05:26:08;;;;;;;12.43;5.00;;;11.10;99.90;;;;;;5066332;28;20186;-74
2023/01/05 05:28:34;;;;;;;8.23;5.87;;;11.10;99.90;;;;;;5065693;28;20186;-74
2023/01/05 05:31:01;;;;;;;10.70;5.37;;;11.10;99.90;;;;;;5048439;28;20734;-74
2023/01/05 05:33:28;;;;;;;7.77;5.33;;;11.10;99.90;;;;;;5062654;28;20183;-75
2023/01/05 05:35:54;;;;;;;8.57;6.03;;;11.20;99.90;;;;;;5061285;28;20195;-75
2023/01/05 05:38:20;;;;;;;7.57;5.40;;;11.20;99.90;;;;;;5077573;28;22365;-75
2023/01/05 05:40:50;;;;;;;7.43;5.83;;;11.20;99.90;;;;;;5048830;28;20614;-74
2023/01/05 05:43:17;;;;;;;7.17;5.17;;;11.20;99.90;;;;;;5065160;28;20245;-74
2023/01/05 05:45:44;;;;;;;9.60;5.67;;;11.20;99.90;;;;;;5063090;28;20280;-75
2023/01/05 05:48:10;;;;;;;7.23;5.50;;;11.20;99.90;;;;;;5049496;28;20183;-75
2023/01/05 05:50:37;;;;;;;9.03;6.27;;;11.20;99.90;;;;;;5067819;28;20200;-75
2023/01/05 05:53:03;;;;;;;8.80;5.73;;;11.20;99.90;;;;;;5070164;28;20191;-75
2023/01/05 05:55:29;;;;;;;6.63;5.13;;;11.20;99.90;;;;;;5053318;28;20212;-75
2023/01/05 05:57:56;;;;;;;8.40;5.80;;;11.20;99.90;;;;;;5065837;28;20202;-75
2023/01/05 06:00:23;;;;;;;7.60;5.37;;;11.20;99.90;;;;;;5061908;28;20183;-75
2023/01/05 06:02:50;;;;;;;8.73;5.17;;;11.30;99.90;;;;;;5047971;28;20215;-75
2023/01/05 06:05:16;;;;;;;11.17;6.10;;;11.30;99.90;;;;;;5061415;28;20728;-75
2023/01/05 06:07:42;;;;;;;10.57;5.90;;;11.30;99.90;;;;;;5064202;28;20195;-75
2023/01/05 06:10:10;;;;;;;8.97;5.93;;;11.30;99.90;;;;;;5056650;28;20195;-75
2023/01/05 06:12:36;;;;;;;11.00;6.17;;;11.30;99.90;;;;;;5069333;28;20640;-75
2023/01/05 06:15:03;;;;;;;9.60;6.33;;;11.40;99.90;;;;;;5068500;28;20199;-75
2023/01/05 06:17:30;;;;;;;11.53;6.47;;;11.40;99.90;;;;;;5046665;28;20192;-75
2023/01/05 06:19:56;;;;;;;9.67;6.30;;;11.50;99.90;;;;;;5046191;28;20195;-75
2023/01/05 06:22:23;;;;;;;11.33;6.70;;;11.50;99.90;;;;;;5034127;28;20234;-75
2023/01/05 06:24:49;;;;;;;10.60;6.37;;;11.50;99.90;;;;;;5067025;28;20540;-75
2023/01/05 06:27:16;;;;;;;8.23;5.87;;;11.50;99.90;;;;;;5050946;28;20191;-74
2023/01/05 06:29:42;;;;;;;9.50;6.23;;;11.60;99.90;;;;;;5054270;28;20191;-75
2023/01/05 06:32:09;;;;;;;12.93;7.40;;;11.60;99.90;;;;;;5051054;28;20237;-75
2023/01/05 06:34:35;;;;;;;10.73;6.70;;;11.60;99.90;;;;;;5068807;28;20247;-75
2023/01/05 06:37:05;;;;;;;8.87;6.73;;;11.60;99.90;;;;;;5065698;28;20192;-75
2023/01/05 06:39:31;;;;;;;12.03;6.47;;;11.70;99.90;;;;;;5069341;28;20194;-75
2023/01/05 06:41:58;;;;;;;9.70;6.67;;;11.70;99.90;;;;;;5052154;28;20279;-74
2023/01/05 06:44:25;;;;;;;13.20;6.70;;;11.80;99.90;;;;;;5044174;28;20195;-75
2023/01/05 06:46:51;;;;;;;12.30;6.80;;;11.80;99.90;;;;;;5060495;28;20187;-75
2023/01/05 06:49:17;;;;;;;8.97;6.67;;;11.80;99.90;;;;;;5065893;28;20192;-75
2023/01/05 06:51:43;;;;;;;9.47;6.13;;;11.80;99.90;;;;;;5050439;28;20183;-75
2023/01/05 06:54:10;;;;;;;12.40;6.80;;;11.90;99.90;;;;;;5047334;28;20198;-75
2023/01/05 06:56:36;;;;;;;8.27;6.30;;;11.90;99.90;;;;;;5041337;28;20234;-75
2023/01/05 06:59:03;;;;;;;9.97;6.20;;;11.90;99.90;;;;;;5068164;28;20198;-75
2023/01/05 07:01:29;;;;;;;10.17;6.50;;;11.90;99.90;;;;;;5052153;28;20214;-75
2023/01/05 07:03:56;;;;;;;9.73;6.40;;;11.90;99.90;;;;;;5051945;28;20187;-75
2023/01/05 07:06:22;;;;;;;14.10;7.53;;;11.90;99.90;;;;;;5051856;28;20201;-75
2023/01/05 07:08:49;;;;;;;9.90;6.77;;;12.00;99.90;;;;;;5054535;28;20215;-75
2023/01/05 07:11:15;;;;;;;9.17;7.00;;;12.00;99.90;;;;;;5051179;28;20194;-75
2023/01/05 07:13:47;;;;;;;11.77;7.00;;;12.00;99.90;;;;;;5068546;28;20663;-75
2023/01/05 07:16:14;;;;;;;8.80;6.67;;;12.10;99.90;;;;;;5052579;28;20191;-75
2023/01/05 07:18:40;;;;;;;10.93;6.87;;;12.10;99.90;;;;;;5069644;28;20332;-75
2023/01/05 07:21:07;;;;;;;12.93;7.07;;;12.20;99.90;;;;;;5084584;28;20195;-75
2023/01/05 07:23:36;;;;;;;13.40;7.80;;;12.30;99.90;;;;;;5051305;28;20684;-75
2023/01/05 07:26:07;;;;;;;10.13;7.00;;;12.40;99.90;;;;;;5065950;28;20190;-75
2023/01/05 07:28:36;;;;;;;10.17;7.20;;;12.40;99.90;;;;;;5067209;28;20178;-75
2023/01/05 07:31:03;;;;;;;8.47;7.03;;;12.40;99.90;;;;;;5069328;28;20635;-75
2023/01/05 07:33:30;;;;;;;11.23;7.43;;;12.40;99.90;;;;;;5068372;28;20183;-75
2023/01/05 07:36:01;;;;;;;13.57;6.80;;;12.40;99.90;;;;;;5043433;28;20260;-75
2023/01/05 07:38:27;;;;;;;10.53;6.93;;;12.50;99.90;;;;;;5049530;28;20582;-75
2023/01/05 07:40:58;;;;;;;13.53;7.30;;;12.50;99.90;;;;;;5043443;28;20180;-75
2023/01/05 07:43:25;;;;;;;12.90;7.60;;;12.80;99.90;;;;;;5062565;28;20215;-75
2023/01/05 07:45:55;;;;;;;11.27;7.10;;;13.00;99.90;;;;;;5066556;28;20183;-74
2023/01/05 07:48:21;;;;;;;10.43;6.97;;;12.90;99.90;;;;;;5044003;28;20178;-75
2023/01/05 07:50:47;;;;;;;11.23;7.50;;;12.90;99.90;;;;;;5035469;28;20187;-75
2023/01/05 07:53:14;;;;;;;10.40;7.00;;;12.90;99.90;;;;;;5059448;28;20187;-75
2023/01/05 07:55:40;;;;;;;11.43;6.97;;;12.80;99.90;;;;;;5057483;28;20890;-75
2023/01/05 07:58:06;;;;;;;16.23;6.70;;;12.80;99.90;;;;;;5063414;28;20234;-74
2023/01/05 08:00:33;;;;;;;10.83;6.57;;;12.80;99.90;;;;;;5056555;28;20647;-75
2023/01/05 08:02:59;;;;;;;12.27;7.30;;;12.90;99.90;;;;;;5054916;28;20244;-75
2023/01/05 08:05:29;;;;;;;9.20;6.20;;;12.90;99.90;;;;;;5071654;28;20206;-75
2023/01/05 08:07:55;;;;;;;8.10;6.73;;;12.90;99.90;;;;;;5038216;28;20187;-75
2023/01/05 08:10:27;;;;;;;11.33;6.90;;;12.90;99.90;;;;;;5061277;28;20727;-75
2023/01/05 08:15:39;;;;;;;10.80;6.60;;;13.10;99.90;;;;;;5053957;28;20194;-75
2023/01/05 08:18:05;;;;;;;11.30;7.27;;;13.10;99.90;;;;;;5061127;28;20650;-75
2023/01/05 08:20:31;;;;;;;11.07;7.00;;;13.20;99.90;;;;;;5044934;28;20192;-75
2023/01/05 08:22:58;;;;;;;9.93;6.57;;;13.20;99.90;;;;;;5060916;28;20215;-75
2023/01/05 08:25:25;;;;;;;8.63;6.23;;;13.20;99.90;;;;;;5061007;28;20724;-74
2023/01/05 08:27:51;;;;;;;9.53;7.03;;;13.20;99.90;;;;;;5060670;28;20191;-75
2023/01/05 08:30:17;;;;;;;8.97;6.23;;;13.20;99.90;;;;;;5061707;28;20259;-75
2023/01/05 08:32:44;;;;;;;9.00;6.30;;;13.20;99.90;;;;;;5061965;28;20556;-75
2023/01/05 08:35:10;;;;;;;16.23;6.43;;;13.20;99.90;;;;;;5061087;28;20195;-75
2023/01/05 08:37:38;;;;;;;12.37;5.97;;;13.30;99.90;;;;;;5060300;28;20270;-75
2023/01/05 08:40:07;;;;;;;12.13;5.80;;;13.40;99.90;;;;;;5058444;28;20268;-75
2023/01/05 08:42:34;;;;;;;12.03;6.37;;;13.40;99.90;;;;;;5058114;28;20218;-75
2023/01/05 08:45:00;;;;;;;11.07;6.00;;;13.60;99.90;;;;;;5060876;28;20175;-75
2023/01/05 08:47:26;;;;;;;10.90;6.10;;;13.60;99.90;;;;;;5058863;28;20679;-75
2023/01/05 08:49:52;;;;;;;8.50;6.30;;;13.60;99.90;;;;;;5060704;28;20191;-75
2023/01/05 08:52:19;;;;;;;13.80;6.77;;;13.60;99.90;;;;;;5062609;28;20183;-75
2023/01/05 08:54:45;;;;;;;10.47;6.40;;;13.60;99.90;;;;;;5060438;28;21010;-75
2023/01/05 08:57:11;;;;;;;10.10;6.53;;;13.50;99.90;;;;;;5062704;28;20190;-75
2023/01/05 08:59:38;;;;;;;8.87;6.33;;;13.50;99.90;;;;;;5057142;28;20209;-75
2023/01/05 09:02:04;;;;;;;10.03;6.53;;;13.50;99.90;;;;;;5045580;28;20207;-76
2023/01/05 09:04:30;;;;;;;10.90;6.50;;;13.50;99.90;;;;;;5058927;28;20280;-76
2023/01/05 09:06:57;;;;;;;11.77;6.70;;;13.50;99.90;;;;;;5057088;28;21045;-76
2023/01/05 09:09:23;;;;;;;9.27;6.43;;;13.40;99.90;;;;;;5063591;28;20631;-75
2023/01/05 09:11:50;;;;;;;11.03;6.43;;;13.50;99.90;;;;;;5048181;28;20799;-76
2023/01/05 09:14:17;;;;;;;14.07;7.00;;;13.50;99.90;;;;;;5063616;28;20186;-76
2023/01/05 09:16:46;;;;;;;11.93;6.93;;;13.50;99.90;;;;;;5075057;28;20186;-76
2023/01/05 09:19:12;;;;;;;8.70;6.10;;;13.50;99.90;;;;;;5058752;28;20189;-75
2023/01/05 09:21:39;;;;;;;14.80;7.00;;;13.50;99.90;;;;;;5057287;28;20719;-75
2023/01/05 09:24:10;;;;;;;13.23;7.17;;;13.60;99.90;;;;;;5062204;28;20190;-75
2023/01/05 09:26:37;;;;;;;11.53;7.20;;;13.60;99.90;;;;;;5039101;28;20207;-76
2023/01/05 09:29:03;;;;;;;10.87;7.07;;;13.60;99.90;;;;;;5061523;28;20183;-75
2023/01/05 09:31:30;;;;;;;11.13;7.37;;;13.60;99.90;;;;;;5063677;28;20194;-76
2023/01/05 09:33:58;;;;;;;14.47;7.13;;;13.60;99.90;;;;;;5035899;28;20245;-75
2023/01/05 09:36:24;;;;;;;9.27;6.63;;;13.70;99.90;;;;;;5060688;28;20187;-75
2023/01/05 09:38:57;;;;;;;12.17;7.10;;;13.80;99.90;;;;;;5079151;28;20640;-75
2023/01/05 09:41:46;;;;;;;13.93;7.67;;;13.80;99.90;;;;;;5064726;28;20261;-75
2023/01/05 09:44:38;;;;;;;13.30;7.37;;;13.90;99.90;;;;;;5055548;28;20178;-75
2023/01/05 09:47:29;;;;;;;10.20;7.20;;;13.90;99.90;;;;;;5040348;28;20192;-75
2023/01/05 09:49:58;;;;;;;12.80;6.73;;;13.80;99.90;;;;;;5065098;28;20193;-76
2023/01/05 09:52:25;;;;;;;12.90;7.30;;;13.80;99.90;;;;;;5065144;28;20349;-76
2023/01/05 09:54:51;;;;;;;8.57;6.23;;;13.80;99.90;;;;;;5068956;28;20183;-76
2023/01/05 09:57:27;;;;;;;10.93;6.40;;;13.80;99.90;;;;;;5050933;28;20841;-76
2023/01/05 10:00:01;;;;;;;9.90;6.00;;;13.80;99.90;;;;;;5044864;28;20182;-76
2023/01/05 10:02:36;;;;;;;12.77;6.07;;;14.00;99.90;;;;;;5084728;28;20304;-76
2023/01/05 10:05:05;;;;;;;7.47;5.67;;;13.90;99.90;;;;;;5064281;28;20175;-76
2023/01/05 10:08:06;;;;;;;10.30;5.80;;;14.00;99.90;;;;;;5052220;28;20179;-76
2023/01/05 10:10:41;;;;;;;10.77;5.47;;;14.10;99.90;;;;;;5068323;28;20260;-76
2023/01/05 10:13:50;;;;;;;6.83;5.23;;;14.10;99.90;;;;;;5052767;28;20194;-76
2023/01/05 10:16:17;;;;;;;9.23;5.87;;;14.10;99.90;;;;;;5074922;28;20193;-76
2023/01/05 10:18:45;;;;;;;9.33;5.60;;;14.10;99.90;;;;;;5083699;28;20210;-76
2023/01/05 10:21:34;;;;;;;10.13;5.40;;;14.10;99.90;;;;;;5071090;28;20278;-76
2023/01/05 10:24:21;;;;;;;10.83;5.97;;;14.20;99.90;;;;;;5083377;28;20218;-76
2023/01/05 10:27:05;;;;;;;9.00;5.50;;;14.20;99.90;;;;;;5060996;28;20199;-76
2023/01/05 10:29:47;;;;;;;10.73;5.07;;;14.30;99.90;;;;;;5049522;28;20748;-76
2023/01/05 10:33:00;;;;;;;8.23;5.63;;;14.30;99.90;;;;;;5063051;28;20194;-77
2023/01/05 10:35:48;;;;;;;12.17;6.40;;;14.40;99.90;;;;;;5065141;28;20267;-77
2023/01/05 10:38:46;;;;;;;10.63;6.47;;;14.40;99.90;;;;;;5064865;28;20968;-77
2023/01/05 10:41:45;;;;;;;11.30;6.30;;;14.40;99.90;;;;;;5065301;28;20254;-78
2023/01/05 10:44:34;;;;;;;11.07;5.90;;;14.60;99.90;;;;;;5066390;28;20319;-77
2023/01/05 10:47:01;;;;;;;12.77;6.30;;;14.70;99.90;;;;;;5067451;28;20287;-77
2023/01/05 10:49:31;;;;;;;14.60;6.20;;;14.70;99.90;;;;;;5046732;28;20195;-77
2023/01/05 10:52:00;;;;;;;10.70;5.30;;;14.70;99.90;;;;;;5064831;28;20277;-77
2023/01/05 10:54:46;;;;;;;11.70;6.13;;;14.80;99.90;;;;;;5069655;28;20190;-77
2023/01/05 10:57:31;;;;;;;11.57;5.77;;;14.90;99.90;;;;;;5051677;28;20179;-77
2023/01/05 11:00:06;;;;;;;12.57;5.90;;;15.00;99.90;;;;;;5083441;28;20262;-77
2023/01/05 11:02:38;;;;;;;8.33;5.80;;;15.10;99.90;;;;;;5067519;28;20260;-76
2023/01/05 11:05:11;;;;;;;9.60;6.17;;;15.00;99.90;;;;;;5083951;28;20248;-77
2023/01/05 11:08:06;;;;;;;13.50;5.97;;;15.00;99.90;;;;;;5065998;28;20742;-77
2023/01/05 11:10:57;;;;;;;6.00;5.10;;;14.90;99.90;;;;;;5067145;28;20340;-77
2023/01/05 11:13:41;;;;;;;8.37;5.97;;;14.80;99.90;;;;;;5069001;28;20191;-77
2023/01/05 11:16:32;;;;;;;11.13;6.13;;;14.70;99.90;;;;;;5067366;28;20210;-77
2023/01/05 11:19:10;;;;;;;10.40;5.73;;;14.80;99.90;;;;;;5068894;28;20817;-78
2023/01/05 11:21:46;;;;;;;8.43;5.07;;;15.10;99.90;;;;;;5069622;28;20201;-77
2023/01/05 11:24:28;;;;;;;7.90;5.13;;;15.40;99.90;;;;;;5083493;28;20186;-78
2023/01/05 11:27:27;;;;;;;8.83;4.83;;;15.60;99.90;;;;;;5047062;28;20175;-78
2023/01/05 11:30:15;;;;;;;9.37;5.33;;;15.60;99.90;;;;;;5065331;28;20433;-78
2023/01/05 11:32:46;;;;;;;9.43;5.43;;;15.70;99.90;;;;;;5048638;28;20187;-78
2023/01/05 11:35:37;;;;;;;8.77;5.40;;;15.50;99.90;;;;;;5048771;28;20281;-78
2023/01/05 11:38:03;;;;;;;9.97;5.80;;;15.30;99.90;;;;;;5069750;28;20183;-78
2023/01/05 11:40:35;;;;;;;9.00;5.57;;;15.10;99.90;;;;;;5050943;28;20187;-78
2023/01/05 11:43:11;;;;;;;9.67;5.30;;;15.00;99.90;;;;;;5070328;28;20221;-77
2023/01/05 11:45:48;;;;;;;9.63;6.30;;;15.10;99.90;;;;;;5067989;28;20273;-78
2023/01/05 11:48:24;;;;;;;9.07;5.60;;;15.10;99.90;;;;;;5081867;28;20282;-77
2023/01/05 11:50:56;;;;;;;12.33;5.77;;;15.00;99.90;;;;;;5047638;28;20619;-78
2023/01/05 11:53:32;;;;;;;11.13;5.97;;;15.10;99.90;;;;;;5065006;28;20194;-77
2023/01/05 11:56:18;;;;;;;9.50;6.00;;;15.30;99.90;;;;;;5052598;28;20239;-77
2023/01/05 11:58:49;;;;;;;8.40;5.97;;;15.30;99.90;;;;;;5051513;28;20190;-78
2023/01/05 12:01:58;;;;;;;8.33;5.73;;;15.40;99.90;;;;;;5069116;28;20277;-77
2023/01/05 12:05:18;;;;;;;10.80;5.53;;;15.30;99.90;;;;;;5067007;28;20244;-78
2023/01/05 12:07:57;;;;;;;7.83;5.70;;;15.30;99.90;;;;;;5084938;28;20235;-78
2023/01/05 12:11:10;;;;;;;13.70;5.80;;;15.10;99.90;;;;;;5063638;28;20225;-78
2023/01/05 12:14:24;;;;;;;9.07;6.10;;;15.10;99.90;;;;;;5087566;28;20195;-77
2023/01/05 12:17:05;;;;;;;7.50;5.50;;;15.10;99.90;;;;;;5039124;28;20195;-78
2023/01/05 12:20:12;;;;;;;10.00;6.13;;;15.20;99.90;;;;;;5054030;28;20656;-77
2023/01/05 12:23:05;;;;;;;9.70;6.07;;;15.10;99.90;;;;;;5070077;28;20348;-77
2023/01/05 12:25:55;;;;;;;10.80;6.40;;;15.20;99.90;;;;;;5063835;28;20184;-78
2023/01/05 12:29:15;;;;;;;10.70;6.50;;;15.10;99.90;;;;;;5049919;28;20178;-77
2023/01/05 12:32:37;;;;;;;8.73;6.80;;;15.10;99.90;;;;;;5031966;28;20192;-77
2023/01/05 12:35:34;;;;;;;8.20;6.00;;;15.20;99.90;;;;;;5031989;28;20242;-78
2023/01/05 12:38:23;;;;;;;11.43;6.30;;;15.30;99.90;;;;;;5065163;28;20195;-78
2023/01/05 12:41:30;;;;;;;11.23;6.17;;;15.40;99.90;;;;;;5070459;28;20183;-78
2023/01/05 12:44:15;;;;;;;9.70;6.37;;;15.50;99.90;;;;;;5087381;28;20217;-77
2023/01/05 12:47:27;;;;;;;12.03;6.17;;;15.50;99.90;;;;;;5064064;28;20255;-78
2023/01/05 12:50:24;;;;;;;7.60;5.50;;;15.50;99.90;;;;;;5046404;28;20192;-78
2023/01/05 12:53:24;;;;;;;12.50;5.90;;;15.50;99.90;;;;;;5068118;28;20233;-78
2023/01/05 12:56:01;;;;;;;10.13;5.83;;;15.60;99.90;;;;;;5033599;28;20199;-79
2023/01/05 12:58:43;;;;;;;8.20;5.00;;;15.60;99.90;;;;;;5067261;28;20228;-78
2023/01/05 13:01:24;;;;;;;10.50;5.60;;;15.60;99.90;;;;;;5067597;28;20214;-78
2023/01/05 13:04:09;;;;;;;12.07;5.43;;;15.50;99.90;;;;;;5067818;28;20198;-78
2023/01/05 13:06:43;;;;;;;6.60;4.90;;;15.50;99.90;;;;;;5050050;28;20186;-78
2023/01/05 13:09:21;;;;;;;10.10;5.43;;;15.40;99.90;;;;;;5063347;28;20244;-78
2023/01/05 13:12:12;;;;;;;6.77;5.03;;;15.40;99.90;;;;;;5080283;28;20192;-78
2023/01/05 13:27:51;;;;;;;7.50;5.07;;;15.20;99.90;;;;;;5145191;27;20655;-89
2023/01/05 13:30:32;;;;;;;7.30;4.80;;;15.20;99.90;;;;;;5122526;27;20198;-90
2023/01/05 13:33:13;;;;;;;8.67;5.53;;;15.10;99.90;;;;;;5090974;28;20177;-89
2023/01/05 13:35:50;;;;;;;10.23;5.87;;;15.10;99.90;;;;;;5119554;27;20203;-90
2023/01/05 13:38:58;;;;;;;8.93;5.33;;;15.10;99.90;;;;;;5102104;28;20189;-82
2023/01/05 13:42:00;;;;;;;10.33;5.70;;;15.00;99.90;;;;;;5103687;28;20189;-84
2023/01/05 13:44:54;;;;;;;9.50;5.97;;;14.90;99.90;;;;;;5067260;28;20193;-84
2023/01/05 13:48:06;;;;;;;10.33;5.90;;;14.80;99.90;;;;;;5094253;28;20236;-85
2023/01/05 13:50:50;;;;;;;8.70;5.40;;;14.70;99.90;;;;;;5100053;28;20177;-84
2023/01/05 13:53:26;;;;;;;7.03;5.73;;;14.60;99.90;;;;;;5125521;27;20172;-84
2023/01/05 13:56:03;;;;;;;8.63;5.63;;;14.50;99.90;;;;;;5099431;28;20282;-84
2023/01/05 13:59:04;;;;;;;10.90;5.77;;;14.40;99.90;;;;;;5100563;28;20233;-84
2023/01/05 14:01:36;;;;;;;10.33;5.73;;;14.40;99.90;;;;;;5119205;28;20481;-85
2023/01/05 14:04:14;;;;;;;12.87;6.53;;;14.30;99.90;;;;;;5111244;28;20268;-86